Time;durP1;ratioP1;P1;durP2;ratioP2;P2;SDS_P1;SDS_P2;PMS_P1;PMS_P2;Temp;Humidity;BMP_temperature;BMP_pressure;BME280_temperature;BME280_humidity;BME280_pressure;Samples;Min_cycle;Max_cycle;Signal;HPM_P1;HPM_P2
2021/08/19 00:01:24;;;;;;;4.18;3.10;;;25.70;44.50;;;;;;6105272;28;80567;-63
2021/08/19 00:04:25;;;;;;;4.22;2.85;;;25.70;44.40;;;;;;6103675;28;81753;-63
2021/08/19 00:07:25;;;;;;;5.22;3.50;;;25.70;44.50;;;;;;6105839;28;80245;-62
2021/08/19 00:10:26;;;;;;;4.35;2.80;;;25.70;44.40;;;;;;6093084;28;81515;-63
2021/08/19 00:13:28;;;;;;;5.60;3.00;;;25.70;44.30;;;;;;6091659;28;81688;-62
2021/08/19 00:16:28;;;;;;;4.97;3.08;;;25.70;44.30;;;;;;6108356;28;80559;-62
2021/08/19 00:19:28;;;;;;;8.68;3.63;;;25.70;44.30;;;;;;6105160;28;81497;-62
2021/08/19 00:22:29;;;;;;;4.22;2.92;;;25.70;44.50;;;;;;6106806;28;80204;-62
2021/08/19 00:25:29;;;;;;;5.25;2.97;;;25.70;44.30;;;;;;6105444;28;82080;-62
2021/08/19 00:28:30;;;;;;;5.13;3.00;;;25.60;44.40;;;;;;6103913;28;80560;-62
2021/08/19 00:31:30;;;;;;;6.18;3.58;;;25.70;44.50;;;;;;6107702;28;81580;-62
2021/08/19 00:34:31;;;;;;;4.32;2.90;;;25.60;44.90;;;;;;6108026;28;80553;-62
2021/08/19 00:37:33;;;;;;;4.90;3.17;;;25.60;44.20;;;;;;6108787;28;80952;-62
2021/08/19 00:40:33;;;;;;;4.95;3.35;;;25.60;44.00;;;;;;6106953;28;80768;-62
2021/08/19 00:43:34;;;;;;;4.35;3.17;;;25.60;44.40;;;;;;6106790;28;83062;-62
2021/08/19 00:46:34;;;;;;;4.38;2.75;;;25.60;44.30;;;;;;6109039;28;80675;-62
2021/08/19 00:49:35;;;;;;;5.03;3.05;;;25.60;44.40;;;;;;6113112;28;81430;-62
2021/08/19 00:52:35;;;;;;;5.05;2.88;;;25.60;44.20;;;;;;6112945;28;80595;-62
2021/08/19 00:55:37;;;;;;;4.63;2.95;;;25.60;44.20;;;;;;6111370;28;80254;-62
2021/08/19 00:58:38;;;;;;;4.20;2.90;;;25.60;44.50;;;;;;6108878;28;80469;-62
2021/08/19 01:01:38;;;;;;;3.53;2.63;;;25.60;44.40;;;;;;6112788;28;80727;-62
2021/08/19 01:04:39;;;;;;;3.08;2.42;;;25.60;44.40;;;;;;6109012;28;80404;-62
2021/08/19 01:07:39;;;;;;;3.13;2.53;;;25.60;44.20;;;;;;6111320;28;82082;-63
2021/08/19 01:10:41;;;;;;;4.35;2.90;;;25.60;44.40;;;;;;6111802;28;80752;-62
2021/08/19 01:13:41;;;;;;;4.05;2.60;;;25.50;44.30;;;;;;6108096;28;80573;-62
2021/08/19 01:16:42;;;;;;;4.00;2.65;;;25.60;44.50;;;;;;6111735;28;80480;-62
2021/08/19 01:19:42;;;;;;;3.50;2.78;;;25.60;44.50;;;;;;6095146;28;80433;-62
2021/08/19 01:22:43;;;;;;;3.50;2.80;;;25.60;44.40;;;;;;6111704;28;81108;-62
2021/08/19 01:25:43;;;;;;;4.22;2.65;;;25.50;44.30;;;;;;6111280;28;81652;-62
2021/08/19 01:28:44;;;;;;;3.80;2.60;;;25.60;44.70;;;;;;6112387;28;81112;-62
2021/08/19 01:31:44;;;;;;;3.95;3.00;;;25.60;44.70;;;;;;6091320;28;80656;-61
2021/08/19 01:34:45;;;;;;;3.28;2.42;;;25.60;44.70;;;;;;6106293;28;81296;-62
2021/08/19 01:37:45;;;;;;;3.25;2.45;;;25.50;44.70;;;;;;6109462;28;80339;-62
2021/08/19 01:40:46;;;;;;;3.40;2.67;;;25.50;44.60;;;;;;6108455;28;80391;-62
2021/08/19 01:43:46;;;;;;;2.75;2.28;;;25.50;44.70;;;;;;6112013;28;80447;-62
2021/08/19 01:46:46;;;;;;;4.72;2.50;;;25.50;44.50;;;;;;6110168;28;80558;-62
2021/08/19 01:49:47;;;;;;;3.10;2.20;;;25.50;44.60;;;;;;6110142;28;80393;-62
2021/08/19 01:52:47;;;;;;;3.13;2.53;;;25.50;44.70;;;;;;6110222;28;81581;-62
2021/08/19 01:55:48;;;;;;;3.70;2.78;;;25.50;44.90;;;;;;6110446;28;80683;-62
2021/08/19 01:58:48;;;;;;;3.58;2.25;;;25.50;44.90;;;;;;6094355;28;80591;-63
2021/08/19 02:01:50;;;;;;;3.78;2.50;;;25.50;44.80;;;;;;6121011;28;80401;-63
2021/08/19 02:04:51;;;;;;;3.63;2.72;;;25.50;44.90;;;;;;6109703;28;81747;-63
2021/08/19 02:07:51;;;;;;;3.67;2.55;;;25.50;44.90;;;;;;6108108;28;80417;-63
2021/08/19 02:10:52;;;;;;;3.55;2.30;;;25.50;44.90;;;;;;6108930;28;80234;-63
2021/08/19 02:13:52;;;;;;;4.32;2.92;;;25.50;44.80;;;;;;6110164;28;80638;-63
2021/08/19 02:16:53;;;;;;;3.78;2.60;;;25.50;45.20;;;;;;6110541;28;80622;-63
2021/08/19 02:19:53;;;;;;;4.25;2.85;;;25.50;44.70;;;;;;6110225;28;82069;-63
2021/08/19 02:22:54;;;;;;;3.08;2.40;;;25.50;45.00;;;;;;6106218;28;80617;-62
2021/08/19 02:25:54;;;;;;;4.32;2.60;;;25.50;44.80;;;;;;6105708;28;80746;-61
2021/08/19 02:28:55;;;;;;;3.65;2.33;;;25.50;44.80;;;;;;6110810;28;80937;-61
2021/08/19 02:31:55;;;;;;;3.10;2.45;;;25.50;44.80;;;;;;6093793;28;82639;-61
2021/08/19 02:34:57;;;;;;;2.65;2.45;;;25.50;44.90;;;;;;6108666;28;80193;-61
2021/08/19 02:37:59;;;;;;;3.28;2.40;;;25.50;44.80;;;;;;6108736;28;85656;-62
2021/08/19 02:41:00;;;;;;;4.07;2.50;;;25.50;44.80;;;;;;6104915;28;81059;-61
2021/08/19 02:44:00;;;;;;;2.75;2.42;;;25.50;45.10;;;;;;6110254;28;80708;-62
2021/08/19 02:47:01;;;;;;;2.53;2.20;;;25.50;44.90;;;;;;6092475;28;80535;-61
2021/08/19 02:50:01;;;;;;;3.53;2.60;;;25.50;45.00;;;;;;6104311;28;81261;-62
2021/08/19 02:53:02;;;;;;;3.30;2.25;;;25.50;44.80;;;;;;6110196;28;80857;-62
2021/08/19 02:56:03;;;;;;;3.05;2.50;;;25.50;45.00;;;;;;6094826;28;88508;-62
2021/08/19 02:59:04;;;;;;;2.95;1.98;;;25.50;44.90;;;;;;6110695;28;80362;-63
2021/08/19 03:02:04;;;;;;;3.10;2.40;;;25.50;45.20;;;;;;6109434;28;80631;-62
2021/08/19 03:05:05;;;;;;;3.35;2.70;;;25.50;45.10;;;;;;6102583;28;80677;-62
2021/08/19 03:08:05;;;;;;;2.78;2.30;;;25.50;44.90;;;;;;6109020;28;80339;-62
2021/08/19 03:11:06;;;;;;;5.32;2.92;;;25.50;44.90;;;;;;6107178;28;81586;-62
2021/08/19 03:14:06;;;;;;;2.40;2.10;;;25.50;45.00;;;;;;6108034;28;80388;-63
2021/08/19 03:17:07;;;;;;;3.30;2.22;;;25.50;44.80;;;;;;6108875;28;80537;-62
2021/08/19 03:20:08;;;;;;;3.95;2.40;;;25.50;45.30;;;;;;6108062;28;80425;-62
2021/08/19 03:23:10;;;;;;;2.60;2.28;;;25.50;45.10;;;;;;6110099;28;81543;-63
2021/08/19 03:26:10;;;;;;;2.88;2.28;;;25.50;45.40;;;;;;6109182;28;80501;-63
2021/08/19 03:29:11;;;;;;;3.38;2.38;;;25.50;45.20;;;;;;6109205;28;81046;-62
2021/08/19 03:32:11;;;;;;;3.65;2.40;;;25.50;45.50;;;;;;6104721;28;80560;-63
2021/08/19 03:35:12;;;;;;;3.20;2.40;;;25.40;45.20;;;;;;6108832;28;80506;-63
2021/08/19 03:38:12;;;;;;;3.22;2.17;;;25.40;45.20;;;;;;6108714;28;80292;-63
2021/08/19 03:41:13;;;;;;;2.55;2.17;;;25.40;45.30;;;;;;6108411;28;80441;-63
2021/08/19 03:44:15;;;;;;;2.65;2.22;;;25.40;45.30;;;;;;6107726;28;81510;-63
2021/08/19 03:47:17;;;;;;;2.47;2.10;;;25.40;45.20;;;;;;6092492;28;81430;-64
2021/08/19 03:50:17;;;;;;;2.55;1.95;;;25.40;45.60;;;;;;6110001;28;80714;-63
2021/08/19 03:53:18;;;;;;;3.95;2.40;;;25.40;45.50;;;;;;6091642;28;83601;-63
2021/08/19 03:56:18;;;;;;;3.10;2.22;;;25.40;45.70;;;;;;6106639;28;82741;-63
2021/08/19 03:59:21;;;;;;;5.10;2.53;;;25.40;45.40;;;;;;6108906;28;80761;-63
2021/08/19 04:02:21;;;;;;;5.07;2.25;;;25.40;45.30;;;;;;6108412;28;80541;-64
2021/08/19 04:05:22;;;;;;;2.78;2.03;;;25.40;45.60;;;;;;6109094;28;82312;-63
2021/08/19 04:08:22;;;;;;;2.65;2.03;;;25.40;45.60;;;;;;6111601;28;80419;-64
2021/08/19 04:11:23;;;;;;;4.28;2.58;;;25.40;45.80;;;;;;6109979;28;80391;-64
2021/08/19 04:14:23;;;;;;;2.78;2.20;;;25.40;45.80;;;;;;6116019;28;80963;-64
2021/08/19 04:17:24;;;;;;;3.17;2.33;;;25.40;46.20;;;;;;6118944;28;80600;-64
2021/08/19 04:20:24;;;;;;;2.97;2.53;;;25.50;46.00;;;;;;6118458;28;82909;-64
2021/08/19 04:23:25;;;;;;;7.97;2.40;;;25.40;45.90;;;;;;6109663;28;80835;-64
2021/08/19 04:26:26;;;;;;;4.38;2.50;;;25.40;46.10;;;;;;6116326;28;80542;-63
2021/08/19 04:29:27;;;;;;;2.88;2.50;;;25.40;45.70;;;;;;6117235;28;80379;-65
2021/08/19 04:32:28;;;;;;;6.13;2.50;;;25.40;45.80;;;;;;6116535;28;80489;-65
2021/08/19 04:35:32;;;;;;;2.65;2.13;;;25.40;45.90;;;;;;6100254;28;80269;-64
2021/08/19 04:38:33;;;;;;;3.15;2.25;;;25.40;45.90;;;;;;6090363;28;83077;-64
2021/08/19 04:41:34;;;;;;;5.68;3.17;;;25.50;46.00;;;;;;6120040;28;81109;-65
2021/08/19 04:44:34;;;;;;;4.63;3.17;;;25.50;45.70;;;;;;6117318;28;80340;-64
2021/08/19 04:47:35;;;;;;;3.88;2.70;;;25.50;46.50;;;;;;6119061;28;80539;-64
2021/08/19 04:50:35;;;;;;;5.32;2.50;;;25.50;45.80;;;;;;6105339;28;80740;-63
2021/08/19 04:53:36;;;;;;;3.78;2.60;;;25.50;46.20;;;;;;6117262;28;80285;-63
2021/08/19 04:56:37;;;;;;;4.57;2.53;;;25.50;45.70;;;;;;6113991;28;81812;-63
2021/08/19 04:59:38;;;;;;;4.22;2.50;;;25.50;46.70;;;;;;6117135;28;81652;-65
2021/08/19 05:02:38;;;;;;;2.92;2.13;;;25.50;45.80;;;;;;6118032;28;80446;-64
2021/08/19 05:05:39;;;;;;;4.00;2.60;;;25.50;45.90;;;;;;6116637;28;81481;-64
2021/08/19 05:08:39;;;;;;;4.78;2.40;;;25.50;45.80;;;;;;6117099;28;80476;-65
2021/08/19 05:11:40;;;;;;;3.70;1.90;;;25.50;45.80;;;;;;6116222;28;80770;-63
2021/08/19 05:14:40;;;;;;;4.38;2.97;;;25.50;46.10;;;;;;6112304;28;80423;-64
2021/08/19 05:17:41;;;;;;;5.72;2.65;;;25.50;45.90;;;;;;6099654;28;83072;-64
2021/08/19 05:20:41;;;;;;;3.47;2.47;;;25.50;45.90;;;;;;6118066;28;82769;-64
2021/08/19 05:23:42;;;;;;;6.43;3.38;;;25.50;45.70;;;;;;6120603;28;81026;-65
2021/08/19 05:26:42;;;;;;;8.95;3.35;;;25.60;46.30;;;;;;6107712;28;80571;-64
2021/08/19 05:29:43;;;;;;;4.13;2.85;;;25.50;45.80;;;;;;6113579;28;83206;-64
2021/08/19 05:32:43;;;;;;;4.15;2.50;;;25.50;46.10;;;;;;6112529;28;80603;-64
2021/08/19 05:35:43;;;;;;;3.08;2.38;;;25.60;46.40;;;;;;6113455;28;80954;-63
2021/08/19 05:38:44;;;;;;;3.10;2.35;;;25.60;45.90;;;;;;6078506;28;83692;-64
2021/08/19 05:41:44;;;;;;;3.70;2.30;;;25.60;46.00;;;;;;6094222;28;83754;-65
2021/08/19 05:44:45;;;;;;;5.57;2.38;;;25.60;46.10;;;;;;6093117;28;80438;-64
2021/08/19 05:47:45;;;;;;;2.97;2.08;;;25.50;46.20;;;;;;6111594;28;80472;-65
2021/08/19 05:50:46;;;;;;;3.67;2.28;;;25.50;46.30;;;;;;6110482;28;80520;-64
2021/08/19 05:53:47;;;;;;;3.33;2.10;;;25.50;46.10;;;;;;6101087;28;81077;-64
2021/08/19 05:56:47;;;;;;;6.72;2.92;;;25.50;46.10;;;;;;6110762;28;81002;-64
2021/08/19 05:59:47;;;;;;;7.25;2.25;;;25.50;46.10;;;;;;6112143;28;80486;-63
2021/08/19 06:02:48;;;;;;;3.33;1.88;;;25.50;46.00;;;;;;6116007;28;80282;-63
2021/08/19 06:05:48;;;;;;;2.63;1.95;;;25.50;46.10;;;;;;6112337;28;80922;-64
2021/08/19 06:08:49;;;;;;;2.92;2.40;;;25.50;46.60;;;;;;6110350;28;80516;-64
2021/08/19 06:11:49;;;;;;;2.75;1.70;;;25.50;46.20;;;;;;6110505;28;80545;-62
2021/08/19 06:14:51;;;;;;;3.67;1.73;;;25.50;46.50;;;;;;6112249;28;80933;-62
2021/08/19 06:17:52;;;;;;;3.42;1.73;;;25.50;46.30;;;;;;6113878;28;81762;-63
2021/08/19 06:20:52;;;;;;;2.38;1.80;;;25.50;46.80;;;;;;6104295;28;82254;-63
2021/08/19 06:23:53;;;;;;;2.70;1.98;;;25.40;46.50;;;;;;6108198;28;82186;-63
2021/08/19 06:26:53;;;;;;;5.03;1.80;;;25.40;46.50;;;;;;6113022;28;80456;-63
2021/08/19 06:29:54;;;;;;;2.05;1.70;;;25.40;46.60;;;;;;6111843;28;82899;-63
2021/08/19 06:32:54;;;;;;;1.95;1.70;;;25.40;46.40;;;;;;6109513;28;80409;-63
2021/08/19 06:35:55;;;;;;;3.47;2.22;;;25.50;46.60;;;;;;6110755;28;81270;-63
2021/08/19 06:38:55;;;;;;;5.05;2.13;;;25.50;46.60;;;;;;6106187;28;80613;-63
2021/08/19 06:41:56;;;;;;;5.45;2.22;;;25.50;46.70;;;;;;6102804;28;81884;-63
2021/08/19 06:44:56;;;;;;;3.60;2.42;;;25.50;46.90;;;;;;6112856;28;81750;-63
2021/08/19 06:47:57;;;;;;;4.05;2.70;;;25.50;47.00;;;;;;6108375;28;80365;-66
2021/08/19 06:50:57;;;;;;;2.60;2.00;;;25.50;47.00;;;;;;6115110;28;80419;-63
2021/08/19 06:53:58;;;;;;;3.03;2.08;;;25.40;46.80;;;;;;6110579;28;80935;-65
2021/08/19 06:57:00;;;;;;;2.78;1.95;;;25.40;46.70;;;;;;6113116;28;81386;-64
2021/08/19 07:00:01;;;;;;;3.00;2.03;;;25.40;47.10;;;;;;6112632;28;83107;-63
2021/08/19 07:03:01;;;;;;;3.90;2.30;;;25.40;46.80;;;;;;6113449;28;81526;-64
2021/08/19 07:06:02;;;;;;;3.58;2.40;;;25.40;47.10;;;;;;6111856;28;81960;-64
2021/08/19 07:09:02;;;;;;;4.60;2.22;;;25.40;47.20;;;;;;6091556;28;80620;-64
2021/08/19 07:12:03;;;;;;;3.45;2.17;;;25.40;47.10;;;;;;6109455;28;81372;-63
2021/08/19 07:15:03;;;;;;;4.47;1.95;;;25.40;46.90;;;;;;6111315;28;80817;-63
2021/08/19 07:18:04;;;;;;;3.65;2.20;;;25.40;47.10;;;;;;6116874;28;82167;-63
2021/08/19 07:21:04;;;;;;;5.22;2.00;;;25.40;47.50;;;;;;6110883;28;80752;-63
2021/08/19 07:24:05;;;;;;;3.95;1.73;;;25.40;47.70;;;;;;6104110;28;80531;-63
2021/08/19 07:27:05;;;;;;;2.85;1.77;;;25.40;47.80;;;;;;6095276;28;81893;-63
2021/08/19 07:30:06;;;;;;;10.23;2.28;;;25.40;47.40;;;;;;6109616;28;80500;-64
2021/08/19 07:33:06;;;;;;;5.20;2.20;;;25.40;47.50;;;;;;6117817;28;80814;-62
2021/08/19 07:36:07;;;;;;;2.90;2.03;;;25.30;47.10;;;;;;6113274;28;81809;-64
2021/08/19 07:39:07;;;;;;;2.78;2.05;;;25.30;47.20;;;;;;6114305;28;80782;-63
2021/08/19 07:42:08;;;;;;;2.88;2.05;;;25.30;47.40;;;;;;6105287;28;81079;-64
2021/08/19 07:45:08;;;;;;;2.65;2.08;;;25.30;47.40;;;;;;6108611;28;80599;-63
2021/08/19 07:48:09;;;;;;;4.68;2.08;;;25.30;47.40;;;;;;6108161;28;80897;-61
2021/08/19 07:51:09;;;;;;;9.25;5.65;;;25.30;47.80;;;;;;6109768;28;81413;-62
2021/08/19 07:54:10;;;;;;;6.50;4.40;;;25.30;47.60;;;;;;6112207;28;80547;-62
2021/08/19 07:57:10;;;;;;;7.47;4.13;;;25.30;47.70;;;;;;6106535;28;80659;-63
2021/08/19 08:00:11;;;;;;;4.82;3.47;;;25.30;47.90;;;;;;6110613;28;80384;-62
2021/08/19 08:03:11;;;;;;;3.65;2.90;;;25.30;47.80;;;;;;6108773;28;81215;-62
2021/08/19 08:06:12;;;;;;;3.25;2.30;;;25.20;47.70;;;;;;6106494;28;80841;-62
2021/08/19 08:09:12;;;;;;;4.13;2.53;;;25.10;47.90;;;;;;6112383;28;81067;-62
2021/08/19 08:12:13;;;;;;;8.80;5.40;;;25.00;47.50;;;;;;6106795;28;80363;-61
2021/08/19 08:15:13;;;;;;;6.32;4.35;;;25.10;47.50;;;;;;6110273;28;82065;-62
2021/08/19 08:18:14;;;;;;;5.55;3.97;;;25.10;47.30;;;;;;6090679;28;82945;-62
2021/08/19 08:21:14;;;;;;;4.57;2.97;;;25.10;47.50;;;;;;6105937;28;80387;-63
2021/08/19 08:24:15;;;;;;;3.65;2.33;;;25.10;47.50;;;;;;6107882;28;80821;-62
2021/08/19 08:27:15;;;;;;;4.53;2.00;;;24.80;47.70;;;;;;6110747;28;82255;-62
2021/08/19 08:30:16;;;;;;;2.95;2.13;;;24.80;47.80;;;;;;6117589;28;80304;-62
2021/08/19 08:33:16;;;;;;;2.17;1.98;;;24.80;47.60;;;;;;6110311;28;80767;-62
2021/08/19 08:36:17;;;;;;;3.10;2.25;;;24.80;47.80;;;;;;6107484;28;81187;-63
2021/08/19 08:39:19;;;;;;;2.58;2.38;;;24.70;48.10;;;;;;6107615;28;80847;-61
2021/08/19 08:42:19;;;;;;;3.00;2.55;;;24.90;48.10;;;;;;6091002;28;81116;-61
2021/08/19 08:45:20;;;;;;;3.35;2.40;;;24.90;47.80;;;;;;6109583;28;80650;-61
2021/08/19 08:48:22;;;;;;;3.35;2.17;;;25.00;48.00;;;;;;6108768;28;80355;-61
2021/08/19 08:51:23;;;;;;;3.90;2.40;;;25.10;47.90;;;;;;6104083;28;80877;-61
2021/08/19 08:54:23;;;;;;;2.38;1.83;;;25.00;47.80;;;;;;6108074;28;80455;-61
2021/08/19 08:57:24;;;;;;;3.42;2.20;;;25.00;48.10;;;;;;6108151;28;81266;-61
2021/08/19 09:00:24;;;;;;;2.90;2.33;;;25.00;47.80;;;;;;6108829;28;80295;-61
2021/08/19 09:03:24;;;;;;;3.13;2.45;;;25.10;48.00;;;;;;6094202;28;82963;-61
2021/08/19 09:06:25;;;;;;;2.45;2.10;;;25.00;48.00;;;;;;6112998;28;80672;-62
2021/08/19 09:09:25;;;;;;;5.05;2.30;;;25.00;48.50;;;;;;6095729;28;83318;-60
2021/08/19 09:12:26;;;;;;;2.22;1.90;;;25.00;48.60;;;;;;6112952;28;80838;-62
2021/08/19 09:15:26;;;;;;;4.15;2.00;;;25.00;48.60;;;;;;6112303;28;80572;-60
2021/08/19 09:18:27;;;;;;;5.22;2.25;;;25.10;48.80;;;;;;6112028;28;80503;-62
2021/08/19 09:21:27;;;;;;;2.47;2.20;;;25.10;48.70;;;;;;6114157;28;80956;-62
2021/08/19 09:24:28;;;;;;;3.60;2.20;;;25.20;48.80;;;;;;6114259;28;80451;-62
2021/08/19 09:27:28;;;;;;;3.00;2.10;;;25.20;49.20;;;;;;6110822;28;81077;-61
2021/08/19 09:30:29;;;;;;;5.25;2.03;;;25.30;48.90;;;;;;6110833;28;80562;-61
2021/08/19 09:33:29;;;;;;;3.45;2.25;;;25.20;48.50;;;;;;6113039;28;81652;-61
2021/08/19 09:36:30;;;;;;;5.18;2.30;;;25.20;48.60;;;;;;6112969;28;81663;-60
2021/08/19 09:39:30;;;;;;;5.40;2.33;;;25.20;48.50;;;;;;6107625;28;80755;-61
2021/08/19 09:42:31;;;;;;;3.25;2.22;;;25.20;48.50;;;;;;6110161;28;81612;-61
2021/08/19 09:45:32;;;;;;;5.03;2.55;;;25.30;48.60;;;;;;6110528;28;81063;-61
2021/08/19 09:48:34;;;;;;;5.50;2.78;;;25.40;48.70;;;;;;6104744;28;80400;-61
2021/08/19 09:51:34;;;;;;;3.72;2.35;;;25.40;48.60;;;;;;6088015;28;80502;-62
2021/08/19 09:54:35;;;;;;;3.38;2.30;;;25.40;48.50;;;;;;6088350;28;80583;-60
2021/08/19 09:57:35;;;;;;;14.63;2.55;;;25.50;48.40;;;;;;6100554;28;80388;-61
2021/08/19 10:00:41;;;;;;;7.03;2.60;;;25.40;48.00;;;;;;6110970;28;81558;-61
2021/08/19 10:03:41;;;;;;;3.00;2.60;;;25.30;48.10;;;;;;6109304;28;80577;-61
2021/08/19 10:06:42;;;;;;;4.05;2.20;;;25.40;48.10;;;;;;6092438;28;83365;-61
2021/08/19 10:09:43;;;;;;;4.55;2.70;;;25.50;48.10;;;;;;6104367;28;80631;-61
2021/08/19 10:12:43;;;;;;;3.50;2.38;;;25.50;47.90;;;;;;6107261;28;81417;-60
2021/08/19 10:15:44;;;;;;;3.45;2.70;;;25.50;47.90;;;;;;6093585;28;80980;-60
2021/08/19 10:18:44;;;;;;;3.70;2.38;;;25.60;47.80;;;;;;6111033;28;80566;-60
2021/08/19 10:21:45;;;;;;;3.65;2.22;;;25.60;47.90;;;;;;6112236;28;81060;-61
2021/08/19 10:24:46;;;;;;;3.00;2.13;;;25.50;47.40;;;;;;6111672;28;80368;-62
2021/08/19 10:27:47;;;;;;;2.55;2.35;;;25.50;47.70;;;;;;6111586;28;82358;-61
2021/08/19 10:30:47;;;;;;;3.53;2.22;;;25.50;46.90;;;;;;6110442;28;80822;-61
2021/08/19 10:33:48;;;;;;;2.80;1.88;;;25.30;47.40;;;;;;6110135;28;80311;-61
2021/08/19 10:36:49;;;;;;;3.30;2.40;;;25.10;47.40;;;;;;6109640;28;80804;-63
2021/08/19 10:39:49;;;;;;;2.75;2.10;;;25.10;47.50;;;;;;6111636;28;80426;-60
2021/08/19 10:42:51;;;;;;;3.42;2.53;;;25.10;47.90;;;;;;6112410;28;80774;-62
2021/08/19 10:45:52;;;;;;;4.50;2.70;;;25.10;47.60;;;;;;6108233;28;81189;-63
2021/08/19 10:48:53;;;;;;;3.45;2.50;;;25.20;47.50;;;;;;6113369;28;81462;-62
2021/08/19 10:51:54;;;;;;;3.33;2.70;;;25.30;47.70;;;;;;6112295;28;80651;-62
2021/08/19 10:54:54;;;;;;;5.88;1.98;;;25.40;47.70;;;;;;6094973;28;81507;-62
2021/08/19 10:57:55;;;;;;;17.83;2.88;;;25.50;47.40;;;;;;6087042;28;80473;-63
2021/08/19 11:00:55;;;;;;;4.05;2.42;;;25.50;47.60;;;;;;6086372;28;80380;-62
2021/08/19 11:03:58;;;;;;;3.78;2.70;;;25.50;47.70;;;;;;6101737;28;81036;-63
2021/08/19 11:06:58;;;;;;;3.88;2.70;;;25.60;47.60;;;;;;6095495;28;80368;-62
2021/08/19 11:09:59;;;;;;;3.45;2.60;;;25.60;48.10;;;;;;6087036;28;80863;-63
2021/08/19 11:12:59;;;;;;;5.65;3.20;;;25.60;48.10;;;;;;6087304;28;81442;-62
2021/08/19 11:15:59;;;;;;;6.47;3.38;;;25.60;48.20;;;;;;6104331;28;81280;-63
2021/08/19 11:19:00;;;;;;;6.55;3.28;;;25.60;48.20;;;;;;6095507;28;80424;-62
2021/08/19 11:22:01;;;;;;;7.68;3.42;;;25.70;48.50;;;;;;6086750;28;80482;-61
2021/08/19 11:25:01;;;;;;;7.70;3.30;;;25.60;48.20;;;;;;6094892;28;83100;-62
2021/08/19 11:28:02;;;;;;;5.32;3.50;;;25.70;48.10;;;;;;6110377;28;82945;-63
2021/08/19 11:31:02;;;;;;;5.22;3.10;;;25.70;48.10;;;;;;6092392;28;81571;-63
2021/08/19 11:34:02;;;;;;;5.65;2.95;;;25.70;48.10;;;;;;6100392;28;80538;-63
2021/08/19 11:37:03;;;;;;;4.65;3.00;;;25.70;48.50;;;;;;6107788;28;81204;-63
2021/08/19 11:40:04;;;;;;;4.95;3.03;;;25.70;48.20;;;;;;6090826;28;81405;-62
2021/08/19 11:43:04;;;;;;;4.35;2.65;;;25.70;47.90;;;;;;6110361;28;80562;-63
2021/08/19 11:46:04;;;;;;;5.78;2.85;;;25.70;48.10;;;;;;6113667;28;80650;-64
2021/08/19 11:49:05;;;;;;;5.28;2.72;;;25.80;48.00;;;;;;6106894;28;81474;-63
2021/08/19 11:52:06;;;;;;;5.15;3.13;;;25.80;48.00;;;;;;6109987;28;80652;-63
2021/08/19 11:55:06;;;;;;;5.15;2.50;;;25.80;48.00;;;;;;6093544;28;83516;-64
2021/08/19 11:58:07;;;;;;;4.53;2.65;;;25.70;48.00;;;;;;6111909;28;80830;-64
2021/08/19 12:01:07;;;;;;;5.45;3.00;;;25.70;47.80;;;;;;6106032;28;81220;-63
2021/08/19 12:04:08;;;;;;;3.63;2.42;;;25.70;47.70;;;;;;6109328;28;80365;-64
2021/08/19 12:07:09;;;;;;;3.53;2.47;;;25.70;47.90;;;;;;6108965;28;80819;-63
2021/08/19 12:10:09;;;;;;;3.92;2.55;;;25.70;48.30;;;;;;6107424;28;80815;-63
2021/08/19 12:13:10;;;;;;;3.72;2.70;;;25.70;47.70;;;;;;6104508;28;81809;-63
2021/08/19 12:16:10;;;;;;;3.47;2.20;;;25.70;47.90;;;;;;6105790;28;81120;-64
2021/08/19 12:19:11;;;;;;;2.97;2.05;;;25.70;47.60;;;;;;6095783;28;83601;-66
2021/08/19 12:22:12;;;;;;;2.20;1.88;;;25.70;47.40;;;;;;6108610;28;81410;-65
2021/08/19 12:25:12;;;;;;;3.90;2.25;;;25.70;47.10;;;;;;6109251;28;83997;-65
2021/08/19 12:28:13;;;;;;;3.40;1.92;;;25.70;47.10;;;;;;6106288;28;81041;-65
2021/08/19 12:31:13;;;;;;;3.92;2.05;;;25.70;47.20;;;;;;6104445;28;81434;-65
2021/08/19 12:34:14;;;;;;;3.28;2.40;;;25.80;47.20;;;;;;6116103;28;80629;-65
2021/08/19 12:37:14;;;;;;;2.65;1.95;;;25.80;46.90;;;;;;6117208;28;81928;-65
2021/08/19 12:40:15;;;;;;;2.80;1.90;;;25.80;46.80;;;;;;6095426;28;82131;-65
2021/08/19 12:43:15;;;;;;;4.00;1.70;;;25.80;46.90;;;;;;6108660;28;80085;-65
2021/08/19 12:46:16;;;;;;;3.50;1.90;;;25.80;46.80;;;;;;6114262;28;81988;-65
2021/08/19 12:49:17;;;;;;;4.00;1.88;;;25.80;46.90;;;;;;6112936;28;81542;-65
2021/08/19 12:52:17;;;;;;;2.92;2.08;;;25.80;47.20;;;;;;6111834;28;80494;-64
2021/08/19 12:55:18;;;;;;;3.63;1.90;;;25.80;47.00;;;;;;6110738;28;81836;-64
2021/08/19 12:58:18;;;;;;;6.70;2.20;;;25.80;47.10;;;;;;6115161;28;81191;-65
2021/08/19 13:01:19;;;;;;;2.20;1.90;;;25.80;46.80;;;;;;6112812;28;81738;-65
2021/08/19 13:04:19;;;;;;;2.60;1.98;;;25.80;46.80;;;;;;6112696;28;82817;-65
2021/08/19 13:07:20;;;;;;;2.80;2.15;;;25.90;46.80;;;;;;6110297;28;81830;-65
2021/08/19 13:10:20;;;;;;;3.20;2.10;;;25.80;46.70;;;;;;6112044;28;80292;-64
2021/08/19 13:13:23;;;;;;;3.45;2.10;;;25.80;46.80;;;;;;6111336;28;82107;-64
2021/08/19 13:16:23;;;;;;;3.13;2.13;;;25.80;47.00;;;;;;6111639;28;81507;-64
2021/08/19 13:19:24;;;;;;;2.38;1.73;;;25.80;46.90;;;;;;6113299;28;81856;-64
2021/08/19 13:22:24;;;;;;;5.53;2.10;;;25.80;47.00;;;;;;6113887;28;80865;-64
2021/08/19 13:25:25;;;;;;;2.92;2.17;;;25.80;47.00;;;;;;6113416;28;80955;-64
2021/08/19 13:28:26;;;;;;;4.10;1.88;;;25.80;47.50;;;;;;6094747;28;80165;-66
2021/08/19 13:31:27;;;;;;;3.80;2.45;;;25.70;47.50;;;;;;6112863;28;80913;-64
2021/08/19 13:34:27;;;;;;;2.63;1.98;;;25.70;47.80;;;;;;6113173;28;81583;-64
2021/08/19 13:37:28;;;;;;;4.00;2.38;;;25.70;47.60;;;;;;6112778;28;80324;-65
2021/08/19 13:40:28;;;;;;;4.30;2.28;;;25.70;47.90;;;;;;6111890;28;80572;-65
2021/08/19 13:43:29;;;;;;;3.97;2.45;;;25.70;47.60;;;;;;6112761;28;80461;-64
2021/08/19 13:46:29;;;;;;;2.78;1.77;;;25.70;47.60;;;;;;6111511;28;83443;-64
2021/08/19 13:49:30;;;;;;;5.95;2.35;;;25.70;47.70;;;;;;6110174;28;81116;-63
2021/08/19 13:52:30;;;;;;;2.08;1.80;;;25.80;47.80;;;;;;6093414;28;81396;-65
2021/08/19 13:55:32;;;;;;;3.25;1.73;;;25.90;47.60;;;;;;6113549;28;80894;-63
2021/08/19 13:58:32;;;;;;;3.55;2.28;;;25.80;47.80;;;;;;6110765;28;81067;-64
2021/08/19 14:01:33;;;;;;;4.25;2.55;;;25.90;47.70;;;;;;6111756;28;80330;-64
2021/08/19 14:04:33;;;;;;;4.15;2.50;;;25.90;47.60;;;;;;6095360;28;80718;-63
2021/08/19 14:07:34;;;;;;;8.80;2.20;;;25.90;47.60;;;;;;6113106;28;80537;-65
2021/08/19 14:10:35;;;;;;;6.78;2.40;;;25.80;47.50;;;;;;6108952;28;82039;-64
2021/08/19 14:13:35;;;;;;;3.92;2.60;;;25.80;47.80;;;;;;6116594;28;80560;-64
2021/08/19 14:16:36;;;;;;;3.80;2.20;;;25.80;48.40;;;;;;6110494;28;80792;-64
2021/08/19 14:19:37;;;;;;;3.33;2.28;;;25.80;47.40;;;;;;6110101;28;87269;-63
2021/08/19 14:22:37;;;;;;;3.35;2.15;;;25.80;47.30;;;;;;6112243;28;80250;-63
2021/08/19 14:25:38;;;;;;;3.50;2.10;;;25.80;47.80;;;;;;6089828;28;83411;-64
2021/08/19 14:28:38;;;;;;;4.03;2.38;;;25.80;47.60;;;;;;6086542;28;81142;-65
2021/08/19 14:31:39;;;;;;;5.75;2.22;;;25.80;47.50;;;;;;6109869;28;81720;-64
2021/08/19 14:34:39;;;;;;;6.10;2.90;;;25.80;47.60;;;;;;6091578;28;82976;-64
2021/08/19 14:37:40;;;;;;;6.00;1.75;;;25.90;47.40;;;;;;6110644;28;82910;-64
2021/08/19 14:40:40;;;;;;;3.92;1.88;;;25.90;47.20;;;;;;6094028;28;80517;-64
2021/08/19 14:43:41;;;;;;;4.07;1.77;;;25.80;47.10;;;;;;6108568;28;80728;-65
2021/08/19 14:46:46;;;;;;;3.90;2.10;;;25.80;47.20;;;;;;6087103;28;81131;-65
2021/08/19 14:49:46;;;;;;;4.33;1.87;;;25.80;47.30;;;;;;6085340;28;80594;-63
2021/08/19 14:52:47;;;;;;;4.70;2.08;;;25.80;47.20;;;;;;6093670;28;80808;-63
2021/08/19 14:55:47;;;;;;;3.28;2.03;;;25.80;47.40;;;;;;6081055;28;80914;-65
2021/08/19 14:58:48;;;;;;;3.75;1.85;;;25.80;47.40;;;;;;6091483;28;80470;-62
2021/08/19 15:01:48;;;;;;;3.17;1.98;;;25.80;47.80;;;;;;6093083;28;81238;-64
2021/08/19 15:04:49;;;;;;;2.35;2.00;;;25.70;47.90;;;;;;6078530;28;81386;-64
2021/08/19 15:07:49;;;;;;;7.80;1.80;;;25.80;47.80;;;;;;6087896;28;80128;-63
2021/08/19 15:10:50;;;;;;;5.25;1.63;;;25.80;47.70;;;;;;6087784;28;80871;-62
2021/08/19 15:13:50;;;;;;;3.70;2.00;;;25.70;46.50;;;;;;6081655;28;81388;-61
2021/08/19 15:16:51;;;;;;;6.68;2.20;;;25.70;45.90;;;;;;6084892;28;80452;-60
2021/08/19 15:19:51;;;;;;;2.08;1.63;;;25.70;46.10;;;;;;6087253;28;81590;-60
2021/08/19 15:22:52;;;;;;;2.90;1.90;;;25.60;45.20;;;;;;6084888;28;80725;-61
2021/08/19 15:25:52;;;;;;;3.08;2.00;;;25.50;45.30;;;;;;6085806;28;82695;-61
2021/08/19 15:28:53;;;;;;;4.38;1.70;;;25.50;45.70;;;;;;6086482;28;80419;-61
2021/08/19 15:31:53;;;;;;;2.97;2.00;;;25.50;45.30;;;;;;6087058;28;83485;-60
2021/08/19 15:34:54;;;;;;;6.30;1.77;;;25.60;45.20;;;;;;6090624;28;80732;-60
2021/08/19 15:37:57;;;;;;;2.90;2.10;;;25.60;45.10;;;;;;6086736;28;81415;-60